createdAt,value
2023-05-09T00:00:30.519Z,14.20
2023-05-09T00:03:18.264Z,14.20
2023-05-09T00:06:05.672Z,14.20
2023-05-09T00:08:52.430Z,14.20
2023-05-09T00:11:39.136Z,14.20
2023-05-09T00:14:25.958Z,14.20
2023-05-09T00:17:14.593Z,14.30
2023-05-09T00:20:01.634Z,14.30
2023-05-09T00:22:48.365Z,14.30
2023-05-09T00:25:35.102Z,14.30
2023-05-09T00:28:21.857Z,14.30
2023-05-09T00:31:08.569Z,14.20
2023-05-09T00:33:55.340Z,14.20
2023-05-09T00:36:42.194Z,14.30
2023-05-09T00:39:29.113Z,14.40
2023-05-09T00:42:16.396Z,14.40
2023-05-09T00:45:03.361Z,14.30
2023-05-09T00:47:50.550Z,14.30
2023-05-09T00:50:37.700Z,14.30
2023-05-09T00:53:24.669Z,14.30
2023-05-09T00:56:12.008Z,14.20
2023-05-09T00:58:58.984Z,14.20
2023-05-09T01:01:46.349Z,14.10
2023-05-09T01:04:33.406Z,14.10
2023-05-09T01:07:39.191Z,14.10
2023-05-09T01:10:32.252Z,14.20
2023-05-09T01:13:22.178Z,14.20
2023-05-09T01:16:09.444Z,14.30
2023-05-09T01:19:00.822Z,14.20
2023-05-09T01:21:49.059Z,14.20
2023-05-09T01:24:54.132Z,14.10
2023-05-09T01:27:48.506Z,14.00
2023-05-09T01:30:36.271Z,13.90
2023-05-09T01:33:24.426Z,13.90
2023-05-09T01:36:13.855Z,13.90
2023-05-09T01:39:02.207Z,13.90
2023-05-09T01:41:49.770Z,13.90
2023-05-09T01:44:38.979Z,13.90
2023-05-09T01:47:26.400Z,13.90
2023-05-09T01:50:13.542Z,14.00
2023-05-09T01:53:01.372Z,14.00
2023-05-09T01:55:49.263Z,14.00
2023-05-09T01:58:36.655Z,14.00
2023-05-09T02:01:24.117Z,14.00
2023-05-09T02:04:11.288Z,14.10
2023-05-09T02:06:58.664Z,14.00
2023-05-09T02:09:46.335Z,14.00
2023-05-09T02:12:34.164Z,14.00
2023-05-09T02:15:21.560Z,14.00
2023-05-09T02:18:08.316Z,14.00
2023-05-09T02:20:55.083Z,14.10
2023-05-09T02:23:41.872Z,14.10
2023-05-09T02:26:29.099Z,14.10
2023-05-09T02:29:17.017Z,14.00
2023-05-09T02:32:04.379Z,14.00
2023-05-09T02:34:52.316Z,13.90
2023-05-09T02:37:39.008Z,13.90
2023-05-09T02:40:26.549Z,13.90
2023-05-09T02:43:15.059Z,13.80
2023-05-09T02:46:02.074Z,13.80
2023-05-09T02:48:49.308Z,13.70
2023-05-09T02:51:36.400Z,13.70
2023-05-09T02:54:23.174Z,13.70
2023-05-09T02:57:09.954Z,13.70
2023-05-09T02:59:56.667Z,13.70
2023-05-09T03:02:43.687Z,13.80
2023-05-09T03:05:30.561Z,13.80
2023-05-09T03:08:17.275Z,13.70
2023-05-09T03:11:04.110Z,13.70
2023-05-09T03:13:50.766Z,13.80
2023-05-09T03:16:37.480Z,13.80
2023-05-09T03:19:24.272Z,13.90
2023-05-09T03:22:11.450Z,13.90
2023-05-09T03:24:58.161Z,13.80
2023-05-09T03:27:44.907Z,13.80
2023-05-09T03:30:31.701Z,13.70
2023-05-09T03:33:18.385Z,13.70
2023-05-09T03:36:05.347Z,13.70
2023-05-09T03:38:52.117Z,13.70
2023-05-09T03:41:38.859Z,13.70
2023-05-09T03:44:25.875Z,13.70
2023-05-09T03:47:12.602Z,13.70
2023-05-09T03:49:59.285Z,13.70
2023-05-09T03:52:46.098Z,13.80
2023-05-09T03:55:32.841Z,13.80
2023-05-09T03:58:19.562Z,13.80
2023-05-09T04:01:06.357Z,13.80
2023-05-09T04:03:53.198Z,13.90
2023-05-09T04:06:39.907Z,13.90
2023-05-09T04:09:27.352Z,13.90
2023-05-09T04:12:14.113Z,14.00
2023-05-09T04:15:01.054Z,14.00
2023-05-09T04:17:47.739Z,13.90
2023-05-09T04:20:34.550Z,13.80
2023-05-09T04:23:21.286Z,13.80
2023-05-09T04:26:09.850Z,13.90
2023-05-09T04:28:56.734Z,13.90
2023-05-09T04:31:43.650Z,13.90
2023-05-09T04:34:30.886Z,13.90
2023-05-09T04:37:18.393Z,13.90
2023-05-09T04:40:05.919Z,13.90
2023-05-09T04:42:52.701Z,13.90
2023-05-09T04:45:39.435Z,14.00
2023-05-09T04:48:26.202Z,14.00
2023-05-09T04:51:12.938Z,14.10
2023-05-09T04:53:59.667Z,14.00
2023-05-09T04:56:47.046Z,14.00
2023-05-09T04:59:35.380Z,14.00
2023-05-09T05:02:22.418Z,14.00
2023-05-09T05:05:17.483Z,14.00
2023-05-09T05:08:04.439Z,14.10
2023-05-09T05:10:51.417Z,14.10
2023-05-09T05:13:38.103Z,14.10
2023-05-09T05:16:24.909Z,14.10
2023-05-09T05:19:11.617Z,14.00
2023-05-09T05:21:58.367Z,14.00
2023-05-09T05:24:45.073Z,14.00
2023-05-09T05:27:31.926Z,14.20
2023-05-09T05:30:18.675Z,14.40
2023-05-09T05:33:05.412Z,14.50
2023-05-09T05:35:52.124Z,14.60
2023-05-09T05:38:38.911Z,14.70
2023-05-09T05:41:26.381Z,14.70
2023-05-09T05:44:13.099Z,14.60
2023-05-09T05:46:59.861Z,14.60
2023-05-09T05:49:46.558Z,14.60
2023-05-09T05:52:33.349Z,14.70
2023-05-09T05:55:20.066Z,14.60
2023-05-09T05:58:06.788Z,14.40
2023-05-09T06:00:53.573Z,14.20
2023-05-09T06:03:40.371Z,14.10
2023-05-09T06:06:27.596Z,14.20
2023-05-09T06:09:14.369Z,14.30
2023-05-09T06:12:01.169Z,14.50
2023-05-09T06:14:47.853Z,14.50
2023-05-09T06:17:34.696Z,14.60
2023-05-09T06:20:21.423Z,14.70
2023-05-09T06:23:08.138Z,14.50
2023-05-09T06:25:54.903Z,14.40
2023-05-09T06:28:41.727Z,14.40
2023-05-09T06:31:28.582Z,14.50
2023-05-09T06:34:15.279Z,14.50
2023-05-09T06:37:01.997Z,14.50
2023-05-09T06:39:48.800Z,14.40
2023-05-09T06:42:35.669Z,14.50
2023-05-09T06:45:22.495Z,14.70
2023-05-09T06:48:09.220Z,14.80
2023-05-09T06:50:55.999Z,14.80
2023-05-09T06:53:42.749Z,14.80
2023-05-09T06:56:29.476Z,14.70
2023-05-09T06:59:16.610Z,14.80
2023-05-09T07:02:03.539Z,14.80
2023-05-09T07:04:50.337Z,14.80
2023-05-09T07:07:37.224Z,14.90
2023-05-09T07:10:23.951Z,14.80
2023-05-09T07:13:10.672Z,14.80
2023-05-09T07:15:57.788Z,15.00
2023-05-09T07:18:44.595Z,15.10
2023-05-09T07:21:33.190Z,15.10
2023-05-09T07:24:19.957Z,15.00
2023-05-09T07:27:06.687Z,14.90
2023-05-09T07:29:53.442Z,14.90
2023-05-09T07:32:40.256Z,15.10
2023-05-09T07:35:27.008Z,15.30
2023-05-09T07:38:14.733Z,15.40
2023-05-09T07:41:01.937Z,15.50
2023-05-09T07:43:48.657Z,15.60
2023-05-09T07:46:37.617Z,15.50
2023-05-09T07:49:24.341Z,15.40
2023-05-09T07:52:11.092Z,15.50
2023-05-09T07:54:57.828Z,15.50
2023-05-09T07:57:44.537Z,15.50
2023-05-09T08:00:31.225Z,15.50
2023-05-09T08:03:18.401Z,15.70
2023-05-09T08:06:05.277Z,15.90
2023-05-09T08:08:52.157Z,16.00
2023-05-09T08:11:38.979Z,16.00
2023-05-09T08:14:25.733Z,16.00
2023-05-09T08:17:12.391Z,16.10
2023-05-09T08:19:59.094Z,16.30
2023-05-09T08:22:45.951Z,16.70
2023-05-09T08:25:32.680Z,17.00
2023-05-09T08:28:19.405Z,17.30
2023-05-09T08:31:06.157Z,17.30
2023-05-09T08:33:53.161Z,17.10
2023-05-09T08:36:41.037Z,17.30
2023-05-09T08:39:27.915Z,17.60
2023-05-09T08:42:16.090Z,17.50
2023-05-09T08:45:14.772Z,17.60
2023-05-09T08:48:06.690Z,18.00
2023-05-09T08:50:54.764Z,18.10
2023-05-09T08:53:41.884Z,18.10
2023-05-09T08:56:29.729Z,17.90
2023-05-09T08:59:17.470Z,18.00
2023-05-09T09:02:08.075Z,18.00
2023-05-09T09:04:54.951Z,17.80
2023-05-09T09:07:44.540Z,17.90
2023-05-09T09:10:32.544Z,18.20
2023-05-09T09:13:20.613Z,18.30
2023-05-09T09:16:13.499Z,18.20
2023-05-09T09:19:00.327Z,18.20
2023-05-09T09:21:48.614Z,18.40
2023-05-09T09:24:35.919Z,18.40
2023-05-09T09:27:22.671Z,18.50
2023-05-09T09:30:10.400Z,18.60
2023-05-09T09:32:59.130Z,18.70
2023-05-09T09:35:45.984Z,18.70
2023-05-09T09:38:39.922Z,18.50
2023-05-09T09:41:30.365Z,18.20
2023-05-09T09:44:17.943Z,18.00
2023-05-09T09:47:09.392Z,17.90
2023-05-09T09:49:56.103Z,17.90
2023-05-09T09:52:49.903Z,18.10
2023-05-09T09:55:36.719Z,18.10
2023-05-09T09:58:25.204Z,18.00
2023-05-09T10:01:16.682Z,18.00
2023-05-09T10:04:03.509Z,18.10
2023-05-09T10:07:01.108Z,18.30
2023-05-09T10:09:49.413Z,18.50
2023-05-09T10:12:39.602Z,18.70
2023-05-09T10:18:20.013Z,18.80
2023-05-09T10:21:08.099Z,18.90
2023-05-09T10:23:55.600Z,19.20
2023-05-09T10:26:43.809Z,19.40
2023-05-09T10:29:33.233Z,19.50
2023-05-09T10:32:37.992Z,19.10
2023-05-09T10:35:26.916Z,18.90
2023-05-09T10:38:13.985Z,18.80
2023-05-09T10:41:00.871Z,18.60
2023-05-09T10:43:47.770Z,18.20
2023-05-09T10:46:34.722Z,18.00
2023-05-09T10:49:21.709Z,17.80
2023-05-09T10:52:08.470Z,17.60
2023-05-09T10:55:00.247Z,17.90
2023-05-09T10:57:52.911Z,18.30
2023-05-09T11:00:41.337Z,18.70
2023-05-09T11:03:29.395Z,19.30
2023-05-09T11:06:40.176Z,19.80
2023-05-09T11:09:29.927Z,20.20
2023-05-09T11:12:19.127Z,20.30
2023-05-09T11:15:07.814Z,20.30
2023-05-09T11:18:07.768Z,20.10
2023-05-09T11:20:55.583Z,20.20
2023-05-09T11:23:42.538Z,20.20
2023-05-09T11:26:29.982Z,20.30
2023-05-09T11:29:17.739Z,20.60
2023-05-09T11:32:05.059Z,20.50
2023-05-09T11:34:51.785Z,20.30
2023-05-09T11:37:46.263Z,20.40
2023-05-09T11:40:33.775Z,20.40
2023-05-09T11:43:20.576Z,20.40
2023-05-09T11:46:07.867Z,20.60
2023-05-09T11:48:54.692Z,20.90
2023-05-09T11:51:41.651Z,21.60
2023-05-09T11:54:28.442Z,22.20
2023-05-09T11:57:17.568Z,22.40
2023-05-09T12:00:06.273Z,22.40
2023-05-09T12:02:53.330Z,22.00
2023-05-09T12:05:40.649Z,21.50
2023-05-09T12:08:28.593Z,21.30
2023-05-09T12:11:15.551Z,21.10
2023-05-09T12:14:02.581Z,20.90
2023-05-09T12:16:49.327Z,21.20
2023-05-09T12:19:36.973Z,21.30
2023-05-09T12:22:23.765Z,21.50
2023-05-09T12:25:11.964Z,21.50
2023-05-09T12:27:58.890Z,21.30
2023-05-09T12:30:45.737Z,21.10
2023-05-09T12:33:32.616Z,20.90
2023-05-09T12:36:19.592Z,20.60
2023-05-09T12:39:13.202Z,20.40
2023-05-09T12:42:01.851Z,20.00
2023-05-09T12:44:49.703Z,19.70
2023-05-09T12:47:38.888Z,19.50
2023-05-09T12:50:31.737Z,19.50
2023-05-09T12:53:25.665Z,19.70
2023-05-09T12:56:16.840Z,19.90
2023-05-09T12:59:03.559Z,20.40
2023-05-09T13:02:00.178Z,20.70
2023-05-09T13:04:47.139Z,20.90
2023-05-09T13:07:43.906Z,20.40
2023-05-09T13:10:30.626Z,20.30
2023-05-09T13:13:17.795Z,20.40
2023-05-09T13:16:06.478Z,20.40
2023-05-09T13:18:54.274Z,20.40
2023-05-09T13:21:41.119Z,20.50
2023-05-09T13:24:27.928Z,20.40
2023-05-09T13:27:14.627Z,20.20
2023-05-09T13:30:03.834Z,20.30
2023-05-09T13:32:51.635Z,20.40
2023-05-09T13:35:38.336Z,20.40
2023-05-09T13:38:25.771Z,20.20
2023-05-09T13:41:13.602Z,20.20
2023-05-09T13:44:00.331Z,20.40
2023-05-09T13:46:47.178Z,20.70
2023-05-09T13:49:34.566Z,20.70
2023-05-09T13:52:21.477Z,20.70
2023-05-09T13:55:08.254Z,20.70
2023-05-09T13:57:55.082Z,20.40
2023-05-09T14:00:42.027Z,20.30
2023-05-09T14:03:28.853Z,20.30
2023-05-09T14:06:15.983Z,20.30
2023-05-09T14:09:02.858Z,20.10
2023-05-09T14:11:51.698Z,19.90
2023-05-09T14:14:38.441Z,19.80
2023-05-09T14:17:25.256Z,19.70
2023-05-09T14:20:12.652Z,19.80
2023-05-09T14:23:00.775Z,19.70
2023-05-09T14:25:47.636Z,19.40
2023-05-09T14:28:34.628Z,19.40
2023-05-09T14:31:21.473Z,19.30
2023-05-09T14:34:09.320Z,19.20
2023-05-09T14:36:56.083Z,19.20
2023-05-09T14:39:43.440Z,19.10
2023-05-09T14:42:30.226Z,19.10
2023-05-09T14:45:17.068Z,19.10
2023-05-09T14:48:04.040Z,19.00
2023-05-09T14:50:54.757Z,19.00
2023-05-09T14:53:42.088Z,18.90
2023-05-09T14:56:28.987Z,18.90
2023-05-09T14:59:15.708Z,18.80
2023-05-09T15:02:02.726Z,18.70
2023-05-09T15:04:49.567Z,18.70
2023-05-09T15:07:36.657Z,18.70
2023-05-09T15:10:23.437Z,18.60
2023-05-09T15:13:10.995Z,18.60
2023-05-09T15:15:57.839Z,18.40
2023-05-09T15:18:46.015Z,18.20
2023-05-09T15:21:33.642Z,18.30
2023-05-09T15:24:20.435Z,18.20
2023-05-09T15:27:07.211Z,18.20
2023-05-09T15:29:54.612Z,18.30
2023-05-09T15:32:41.509Z,18.30
2023-05-09T15:35:28.354Z,18.30
2023-05-09T15:38:15.561Z,18.30
2023-05-09T15:41:03.072Z,18.20
2023-05-09T15:43:49.892Z,18.10
2023-05-09T15:46:36.667Z,18.00
2023-05-09T15:49:23.417Z,18.00
2023-05-09T15:52:10.745Z,17.90
2023-05-09T15:54:58.119Z,17.80
2023-05-09T15:57:47.473Z,17.80
2023-05-09T16:00:34.291Z,17.80
2023-05-09T16:03:21.151Z,17.70
2023-05-09T16:06:08.091Z,17.60
2023-05-09T16:08:54.861Z,17.50
2023-05-09T16:11:42.122Z,17.40
2023-05-09T16:14:28.903Z,17.30
2023-05-09T16:17:15.679Z,17.10
2023-05-09T16:20:02.519Z,17.00
2023-05-09T16:22:49.280Z,16.90
2023-05-09T16:25:35.999Z,16.80
2023-05-09T16:28:28.000Z,16.80
2023-05-09T16:31:14.790Z,16.80
2023-05-09T16:34:01.562Z,16.90
2023-05-09T16:36:48.406Z,16.80
2023-05-09T16:39:35.302Z,16.80
2023-05-09T16:42:22.048Z,16.70
2023-05-09T16:45:08.906Z,16.60
2023-05-09T16:47:58.467Z,16.60
2023-05-09T16:50:46.781Z,16.50
2023-05-09T16:53:33.444Z,16.40
2023-05-09T16:56:20.166Z,16.40
2023-05-09T16:59:07.444Z,16.30
2023-05-09T17:01:54.186Z,16.20
2023-05-09T17:04:40.888Z,16.20
2023-05-09T17:07:27.715Z,16.20
2023-05-09T17:10:14.762Z,16.10
2023-05-09T17:13:07.463Z,16.10
2023-05-09T17:15:54.254Z,16.00
2023-05-09T17:18:46.056Z,15.90
2023-05-09T17:21:32.948Z,15.90
2023-05-09T17:24:19.755Z,15.80
2023-05-09T17:27:06.516Z,15.80
2023-05-09T17:29:53.213Z,15.70
2023-05-09T17:32:42.355Z,15.70
2023-05-09T17:35:30.413Z,15.80
2023-05-09T17:38:17.501Z,15.70
2023-05-09T17:41:04.929Z,15.70
2023-05-09T17:43:52.513Z,15.70
2023-05-09T17:46:39.915Z,15.60
2023-05-09T17:49:27.885Z,15.60
2023-05-09T17:52:14.617Z,15.50
2023-05-09T17:55:01.348Z,15.50
2023-05-09T17:57:48.208Z,15.40
2023-05-09T18:00:34.900Z,15.30
2023-05-09T18:03:21.698Z,15.20
2023-05-09T18:06:08.525Z,15.20
2023-05-09T18:08:55.416Z,15.20
2023-05-09T18:11:42.482Z,15.10
2023-05-09T18:14:29.378Z,15.00
2023-05-09T18:17:16.422Z,14.90
2023-05-09T18:20:04.541Z,14.80
2023-05-09T18:22:51.259Z,14.60
2023-05-09T18:25:38.846Z,14.50
2023-05-09T18:28:25.855Z,14.40
2023-05-09T18:31:13.483Z,14.40
2023-05-09T18:34:00.228Z,14.30
2023-05-09T18:36:47.409Z,14.30
2023-05-09T18:39:34.135Z,14.30
2023-05-09T18:42:20.954Z,14.30
2023-05-09T18:45:10.756Z,14.30
2023-05-09T18:47:57.520Z,14.30
2023-05-09T18:50:44.782Z,14.20
2023-05-09T18:53:32.802Z,14.20
2023-05-09T18:56:22.192Z,14.20
2023-05-09T18:59:11.996Z,14.30
2023-05-09T19:01:58.755Z,14.30
2023-05-09T19:04:50.476Z,14.50
2023-05-09T19:07:38.201Z,14.60
2023-05-09T19:10:24.937Z,14.60
2023-05-09T19:13:12.888Z,14.50
2023-05-09T19:16:01.516Z,14.50
2023-05-09T19:18:48.868Z,14.50
2023-05-09T19:21:35.785Z,14.60
2023-05-09T19:24:22.593Z,14.70
2023-05-09T19:27:11.924Z,14.80
2023-05-09T19:29:59.482Z,14.70
2023-05-09T19:32:46.236Z,14.80
2023-05-09T19:35:32.937Z,14.80
2023-05-09T19:38:19.712Z,14.70
2023-05-09T19:41:06.472Z,14.60
2023-05-09T19:43:53.366Z,14.60
2023-05-09T19:46:43.049Z,14.40
2023-05-09T19:49:29.873Z,14.30
2023-05-09T19:52:16.674Z,14.30
2023-05-09T19:55:03.841Z,14.20
2023-05-09T19:57:50.550Z,14.10
2023-05-09T20:00:38.887Z,14.00
2023-05-09T20:03:25.891Z,13.90
2023-05-09T20:06:13.082Z,13.90
2023-05-09T20:08:59.775Z,13.90
2023-05-09T20:11:50.577Z,13.90
2023-05-09T20:14:37.578Z,13.90
2023-05-09T20:17:24.386Z,14.10
2023-05-09T20:20:11.523Z,14.20
2023-05-09T20:22:58.486Z,14.30
2023-05-09T20:25:45.189Z,14.30
2023-05-09T20:28:32.139Z,14.30
2023-05-09T20:31:19.120Z,14.30
2023-05-09T20:34:06.063Z,14.40
2023-05-09T20:36:53.928Z,14.40
2023-05-09T20:39:40.727Z,14.40
2023-05-09T20:42:27.460Z,14.40
2023-05-09T20:45:14.194Z,14.40
2023-05-09T20:48:01.880Z,14.40
2023-05-09T20:50:48.699Z,14.40
2023-05-09T20:53:37.599Z,14.40
2023-05-09T20:56:24.930Z,14.40
2023-05-09T20:59:11.809Z,14.30
2023-05-09T21:01:58.601Z,14.30
2023-05-09T21:04:45.332Z,14.30
2023-05-09T21:07:32.113Z,14.30
2023-05-09T21:10:18.847Z,14.30
2023-05-09T21:13:05.994Z,14.20
2023-05-09T21:15:52.801Z,14.20
2023-05-09T21:18:39.508Z,14.30
2023-05-09T21:21:26.225Z,14.20
2023-05-09T21:24:12.958Z,14.20
2023-05-09T21:26:59.911Z,14.10
2023-05-09T21:29:49.364Z,14.10
2023-05-09T21:32:36.291Z,14.00
2023-05-09T21:35:23.130Z,14.00
2023-05-09T21:38:09.819Z,14.00
2023-05-09T21:40:56.595Z,13.90
2023-05-09T21:43:43.395Z,14.00
2023-05-09T21:46:34.133Z,13.90
2023-05-09T21:49:21.713Z,13.90
2023-05-09T21:52:08.505Z,13.90
2023-05-09T21:54:55.228Z,13.80
2023-05-09T21:57:41.976Z,13.80
2023-05-09T22:00:28.639Z,13.80
2023-05-09T22:03:15.535Z,13.80
2023-05-09T22:06:02.381Z,13.90
2023-05-09T22:08:51.134Z,13.90
2023-05-09T22:11:38.113Z,13.90
2023-05-09T22:14:24.866Z,13.80
2023-05-09T22:17:11.560Z,13.80
2023-05-09T22:19:58.286Z,13.70
2023-05-09T22:22:44.956Z,13.70
2023-05-09T22:25:31.913Z,13.70
2023-05-09T22:28:18.771Z,13.70
2023-05-09T22:31:06.750Z,13.70
2023-05-09T22:33:53.484Z,13.70
2023-05-09T22:36:40.238Z,13.70
2023-05-09T22:39:27.227Z,13.70
2023-05-09T22:42:13.940Z,13.60
2023-05-09T22:45:01.080Z,13.60
2023-05-09T22:47:48.574Z,13.60
2023-05-09T22:50:35.301Z,13.60
2023-05-09T22:53:22.058Z,13.60
2023-05-09T22:56:09.465Z,13.60
2023-05-09T22:58:56.221Z,13.60
2023-05-09T23:01:43.069Z,13.70
2023-05-09T23:04:29.952Z,13.70
2023-05-09T23:07:16.684Z,13.80
2023-05-09T23:10:04.280Z,13.80
2023-05-09T23:12:51.177Z,13.80
2023-05-09T23:15:37.961Z,13.90
2023-05-09T23:18:25.724Z,13.90
2023-05-09T23:21:12.508Z,13.90
2023-05-09T23:23:59.468Z,13.90
2023-05-09T23:26:46.264Z,13.80
2023-05-09T23:29:33.242Z,13.80
2023-05-09T23:32:19.969Z,13.80
2023-05-09T23:35:07.147Z,13.70
2023-05-09T23:37:53.844Z,13.70
2023-05-09T23:40:43.433Z,13.60
2023-05-09T23:43:30.196Z,13.60
2023-05-09T23:46:16.881Z,13.60
2023-05-09T23:49:04.367Z,13.60
2023-05-09T23:51:51.484Z,13.60
2023-05-09T23:54:39.792Z,13.70
2023-05-09T23:57:26.476Z,13.60
